createdAt,value
2023-05-10T00:02:36.996Z,68.68
2023-05-10T00:07:40.527Z,69.17
2023-05-10T00:12:45.435Z,70.07
2023-05-10T00:17:48.956Z,70.37
2023-05-10T00:22:52.353Z,70.66
2023-05-10T00:27:58.142Z,71.04
2023-05-10T00:33:01.549Z,71.48
2023-05-10T00:38:04.955Z,71.47
2023-05-10T00:43:10.155Z,70.84
2023-05-10T00:48:14.152Z,71.20
2023-05-10T00:53:18.017Z,72.00
2023-05-10T00:58:24.821Z,71.73
2023-05-10T01:03:28.468Z,72.27
2023-05-10T01:08:32.103Z,73.07
2023-05-10T01:13:40.374Z,72.92
2023-05-10T01:18:45.388Z,71.65
2023-05-10T01:24:14.703Z,71.58
2023-05-10T01:29:44.795Z,71.61
2023-05-10T01:34:56.849Z,71.55
2023-05-10T01:40:05.192Z,72.48
2023-05-10T01:45:28.386Z,71.65
2023-05-10T01:50:34.996Z,71.48
2023-05-10T01:55:45.716Z,71.23
2023-05-10T02:00:52.007Z,72.59
2023-05-10T02:05:59.256Z,72.53
2023-05-10T02:11:03.471Z,71.95
2023-05-10T02:16:08.926Z,72.27
2023-05-10T02:21:16.032Z,71.72
2023-05-10T02:26:50.041Z,71.83
2023-05-10T02:31:55.266Z,72.91
2023-05-10T02:37:01.882Z,72.50
2023-05-10T02:42:07.265Z,71.85
2023-05-10T02:47:10.834Z,71.23
2023-05-10T02:52:21.567Z,71.13
2023-05-10T02:57:32.335Z,70.25
2023-05-10T03:02:37.390Z,69.71
2023-05-10T03:07:42.445Z,70.07
2023-05-10T03:12:58.361Z,69.77
2023-05-10T03:18:05.987Z,69.64
2023-05-10T03:23:15.889Z,69.27
2023-05-10T03:28:20.627Z,69.54
2023-05-10T03:33:24.877Z,69.58
2023-05-10T03:38:30.689Z,69.90
2023-05-10T03:43:34.574Z,69.63
2023-05-10T03:48:40.743Z,69.16
2023-05-10T03:53:45.861Z,69.65
2023-05-10T03:59:10.356Z,68.17
2023-05-10T04:04:13.954Z,69.17
2023-05-10T04:09:19.145Z,69.20
2023-05-10T04:14:22.527Z,68.86
2023-05-10T04:19:25.959Z,68.20
2023-05-10T04:24:30.753Z,68.63
2023-05-10T04:30:01.884Z,68.34
2023-05-10T04:35:05.729Z,66.46
2023-05-10T04:40:11.855Z,68.27
2023-05-10T04:45:15.577Z,68.81
2023-05-10T04:50:19.306Z,68.85
2023-05-10T04:55:24.074Z,67.79
2023-05-10T05:06:33.228Z,68.47
2023-05-10T05:11:38.176Z,68.56
2023-05-10T05:16:41.704Z,69.57
2023-05-10T05:21:45.308Z,69.14
2023-05-10T05:26:50.156Z,68.94
2023-05-10T05:31:55.408Z,69.22
2023-05-10T05:36:59.016Z,69.23
2023-05-10T05:42:03.989Z,69.77
2023-05-10T05:47:08.254Z,70.28
2023-05-10T05:52:12.074Z,70.23
2023-05-10T05:57:16.889Z,70.27
2023-05-10T06:02:20.400Z,69.69
2023-05-10T06:07:23.877Z,69.78
2023-05-10T06:12:30.734Z,69.72
2023-05-10T06:17:36.164Z,69.50
2023-05-10T06:22:39.730Z,69.41
2023-05-10T06:27:46.485Z,68.68
2023-05-10T06:32:52.837Z,69.47
2023-05-10T06:37:56.421Z,68.64
2023-05-10T06:43:01.328Z,68.74
2023-05-10T06:48:05.168Z,69.03
2023-05-10T06:53:08.682Z,67.99
2023-05-10T06:58:13.571Z,67.30
2023-05-10T07:03:16.989Z,67.44
2023-05-10T07:08:20.447Z,66.44
2023-05-10T07:13:25.313Z,66.37
2023-05-10T07:18:28.976Z,66.55
2023-05-10T07:23:32.564Z,65.43
2023-05-10T07:28:50.072Z,65.37
2023-05-10T07:33:53.547Z,65.07
2023-05-10T07:38:58.344Z,62.86
2023-05-10T07:44:03.353Z,63.24
2023-05-10T07:49:08.762Z,62.19
2023-05-10T07:54:12.326Z,64.15
2023-05-10T07:59:20.997Z,62.59
2023-05-10T08:04:25.073Z,62.12
2023-05-10T08:09:28.952Z,61.24
2023-05-10T08:14:33.793Z,60.99
2023-05-10T08:19:37.158Z,60.76
2023-05-10T08:24:40.623Z,60.60
2023-05-10T08:29:49.933Z,60.33
2023-05-10T08:34:54.063Z,61.64
2023-05-10T08:39:57.477Z,60.91
2023-05-10T08:45:04.261Z,60.53
2023-05-10T08:50:11.922Z,61.04
2023-05-10T08:55:18.178Z,60.79
2023-05-10T09:00:24.962Z,60.90
2023-05-10T09:05:29.315Z,60.35
2023-05-10T09:10:33.952Z,59.72
2023-05-10T09:15:39.086Z,59.86
2023-05-10T09:20:43.221Z,60.17
2023-05-10T09:25:46.796Z,60.72
2023-05-10T09:30:56.517Z,62.21
2023-05-10T09:36:09.404Z,59.66
2023-05-10T09:41:19.094Z,60.87
2023-05-10T09:46:24.681Z,59.15
2023-05-10T09:51:28.957Z,60.33
2023-05-10T09:56:36.488Z,60.64
2023-05-10T10:01:41.765Z,59.70
2023-05-10T10:06:45.620Z,58.64
2023-05-10T10:11:49.230Z,59.82
2023-05-10T10:17:06.616Z,58.61
2023-05-10T10:22:12.896Z,60.50
2023-05-10T10:27:26.127Z,57.50
2023-05-10T10:32:40.141Z,57.62
2023-05-10T10:37:47.316Z,57.32
2023-05-10T10:42:53.995Z,59.36
2023-05-10T10:48:28.461Z,58.21
2023-05-10T10:53:32.028Z,60.03
2023-05-10T10:58:36.533Z,56.35
2023-05-10T11:03:44.607Z,56.60
2023-05-10T11:08:49.218Z,56.31
2023-05-10T11:13:53.616Z,55.90
2023-05-10T11:19:03.179Z,56.21
2023-05-10T11:24:16.380Z,56.35
2023-05-10T11:29:20.144Z,58.02
2023-05-10T11:34:28.812Z,57.09
2023-05-10T11:39:34.440Z,56.55
2023-05-10T11:44:37.977Z,54.28
2023-05-10T11:49:45.912Z,54.32
2023-05-10T11:54:53.563Z,52.81
2023-05-10T11:59:58.251Z,53.19
2023-05-10T12:05:07.184Z,53.54
2023-05-10T12:10:13.205Z,50.92
2023-05-10T12:15:20.884Z,52.47
2023-05-10T12:20:29.485Z,51.66
2023-05-10T12:25:34.035Z,49.97
2023-05-10T12:30:38.749Z,52.51
2023-05-10T12:35:48.379Z,53.37
2023-05-10T12:40:51.855Z,52.00
2023-05-10T12:45:55.645Z,52.11
2023-05-10T12:51:00.584Z,53.69
2023-05-10T12:56:04.270Z,54.53
2023-05-10T13:01:30.773Z,52.70
2023-05-10T13:06:36.126Z,53.57
2023-05-10T13:11:39.850Z,51.39
2023-05-10T13:16:43.480Z,50.54
2023-05-10T13:21:48.517Z,52.84
2023-05-10T13:26:53.375Z,51.99
2023-05-10T13:31:58.442Z,50.31
2023-05-10T13:37:03.677Z,51.15
2023-05-10T13:42:07.417Z,51.87
2023-05-10T13:47:11.282Z,50.66
2023-05-10T13:52:19.220Z,52.31
2023-05-10T13:57:22.874Z,52.40
2023-05-10T14:02:28.486Z,51.37
2023-05-10T14:07:33.390Z,48.48
2023-05-10T14:12:36.758Z,50.55
2023-05-10T14:17:40.197Z,50.15
2023-05-10T14:22:44.994Z,48.87
2023-05-10T14:27:48.799Z,49.64
2023-05-10T14:32:52.398Z,49.65
2023-05-10T14:37:57.631Z,49.19
2023-05-10T14:43:01.199Z,49.08
2023-05-10T14:48:05.700Z,48.75
2023-05-10T14:53:10.691Z,49.96
2023-05-10T14:58:14.176Z,50.48
2023-05-10T15:09:41.852Z,48.56
2023-05-10T15:21:46.373Z,49.48
2023-05-10T15:26:51.152Z,49.14
2023-05-10T15:31:54.751Z,47.98
2023-05-10T15:36:58.262Z,48.17
2023-05-10T15:42:04.073Z,47.93
2023-05-10T15:47:07.668Z,47.58
2023-05-10T15:52:11.330Z,46.02
2023-05-10T15:57:16.161Z,47.29
2023-05-10T16:02:19.657Z,47.72
2023-05-10T16:07:23.102Z,47.51
2023-05-10T16:12:27.868Z,47.60
2023-05-10T16:17:31.345Z,46.81
2023-05-10T16:22:34.816Z,47.96
2023-05-10T16:27:41.923Z,48.02
2023-05-10T16:32:45.473Z,48.62
2023-05-10T16:37:48.854Z,48.38
2023-05-10T16:42:53.716Z,48.79
2023-05-10T16:47:58.610Z,50.16
2023-05-10T16:53:02.400Z,50.13
2023-05-10T16:58:07.172Z,49.78
2023-05-10T17:03:10.665Z,49.66
2023-05-10T17:08:14.308Z,48.71
2023-05-10T17:13:19.229Z,49.33
2023-05-10T17:18:23.196Z,49.52
2023-05-10T17:23:26.725Z,49.86
2023-05-10T17:28:31.850Z,50.80
2023-05-10T17:33:35.300Z,51.36
2023-05-10T17:38:38.808Z,49.12
2023-05-10T17:44:29.851Z,50.53
2023-05-10T17:49:35.891Z,49.77
2023-05-10T17:54:39.444Z,50.94
2023-05-10T17:59:42.874Z,51.67
2023-05-10T18:04:48.906Z,51.50
2023-05-10T18:09:58.212Z,52.13
2023-05-10T18:15:01.878Z,52.36
2023-05-10T18:20:32.303Z,52.51
2023-05-10T18:25:36.199Z,53.45
2023-05-10T18:30:40.433Z,54.91
2023-05-10T18:35:48.336Z,53.55
2023-05-10T18:40:58.495Z,53.17
2023-05-10T18:46:02.041Z,52.48
2023-05-10T18:57:29.314Z,52.92
2023-05-10T19:02:32.746Z,52.76
2023-05-10T19:08:13.311Z,52.94
2023-05-10T19:19:32.503Z,53.24
2023-05-10T19:24:37.536Z,52.41
2023-05-10T19:29:40.982Z,52.49
2023-05-10T19:41:06.341Z,51.58
2023-05-10T19:46:10.186Z,51.79
2023-05-10T19:51:14.000Z,52.07
2023-05-10T19:56:19.684Z,52.60
2023-05-10T20:01:23.426Z,53.16
2023-05-10T20:06:27.409Z,52.20
2023-05-10T20:11:57.397Z,52.91
2023-05-10T20:17:01.141Z,52.33
2023-05-10T20:22:09.370Z,53.22
2023-05-10T20:27:14.338Z,52.54
2023-05-10T20:32:17.833Z,52.09
2023-05-10T20:37:21.550Z,53.32
2023-05-10T20:42:26.980Z,53.26
2023-05-10T20:47:55.295Z,54.38
2023-05-10T20:53:21.354Z,54.82
2023-05-10T20:58:26.227Z,54.59
2023-05-10T21:03:29.967Z,54.81
2023-05-10T21:08:33.388Z,55.01
2023-05-10T21:13:38.150Z,54.98
2023-05-10T21:18:41.603Z,54.52
2023-05-10T21:23:47.332Z,54.86
2023-05-10T21:28:56.675Z,55.30
2023-05-10T21:34:00.177Z,55.45
2023-05-10T21:39:03.756Z,55.59
2023-05-10T21:44:08.788Z,55.72
2023-05-10T21:49:12.480Z,56.58
2023-05-10T21:54:15.881Z,56.67
2023-05-10T21:59:21.532Z,56.94
2023-05-10T22:04:24.968Z,56.75
2023-05-10T22:09:28.617Z,57.36
2023-05-10T22:14:33.462Z,57.36
2023-05-10T22:19:36.886Z,57.93
2023-05-10T22:24:40.268Z,57.35
2023-05-10T22:29:46.627Z,58.17
2023-05-10T22:34:50.317Z,58.65
2023-05-10T22:39:53.758Z,58.54
2023-05-10T22:44:59.397Z,58.67
2023-05-10T22:50:04.258Z,57.94
2023-05-10T22:55:08.487Z,58.19
2023-05-10T23:00:14.634Z,58.01
2023-05-10T23:05:18.403Z,58.34
2023-05-10T23:10:21.929Z,58.46
2023-05-10T23:15:26.950Z,58.29
2023-05-10T23:20:30.439Z,58.23
2023-05-10T23:25:34.075Z,57.81
2023-05-10T23:30:38.901Z,58.36
2023-05-10T23:35:43.274Z,58.45
2023-05-10T23:40:49.218Z,58.26
2023-05-10T23:45:58.641Z,58.37
2023-05-10T23:51:02.182Z,58.55
2023-05-10T23:56:06.473Z,58.46
